createdAt,value
2023-02-22T00:02:13.240Z,98716.19
2023-02-22T00:04:40.602Z,98719.13
2023-02-22T00:07:08.622Z,98715.47
2023-02-22T00:09:35.926Z,98720.84
2023-02-22T00:12:03.277Z,98713.59
2023-02-22T00:14:30.414Z,98713.84
2023-02-22T00:16:59.927Z,98703.34
2023-02-22T00:19:30.737Z,98711.88
2023-02-22T00:21:58.350Z,98717.31
2023-02-22T00:24:25.806Z,98713.31
2023-02-22T00:26:55.882Z,98706.31
2023-02-22T00:29:26.642Z,98712.38
2023-02-22T00:31:54.423Z,98708.34
2023-02-22T00:34:24.098Z,98706.84
2023-02-22T00:36:51.573Z,98712.44
2023-02-22T00:39:18.994Z,98704.41
2023-02-22T00:41:46.597Z,98700.34
2023-02-22T00:44:14.715Z,98705.19
2023-02-22T00:46:42.201Z,98712.28
2023-02-22T00:49:09.534Z,98702.09
2023-02-22T00:51:36.799Z,98703.13
2023-02-22T00:54:05.465Z,98707.47
2023-02-22T00:56:34.945Z,98701.88
2023-02-22T00:59:04.205Z,98703.56
2023-02-22T01:01:32.455Z,98695.28
2023-02-22T01:03:59.669Z,98696.44
2023-02-22T01:06:26.824Z,98694.56
2023-02-22T01:08:54.091Z,98685.63
2023-02-22T01:11:22.381Z,98688.25
2023-02-22T01:13:49.503Z,98685.63
2023-02-22T01:16:17.370Z,98681.84
2023-02-22T01:18:44.576Z,98687.50
2023-02-22T01:21:11.876Z,98689.06
2023-02-22T01:23:41.333Z,98691.41
2023-02-22T01:26:11.594Z,98698.69
2023-02-22T01:28:39.544Z,98688.94
2023-02-22T01:31:06.806Z,98686.88
2023-02-22T01:33:34.094Z,98686.47
2023-02-22T01:36:01.281Z,98690.22
2023-02-22T01:38:28.433Z,98684.00
2023-02-22T01:40:55.631Z,98682.84
2023-02-22T01:43:31.675Z,98675.59
2023-02-22T01:46:24.614Z,98679.72
2023-02-22T01:49:10.215Z,98685.16
2023-02-22T01:51:45.213Z,98677.66
2023-02-22T01:54:29.756Z,98670.63
2023-02-22T01:57:13.609Z,98668.44
2023-02-22T01:59:50.453Z,98659.28
2023-02-22T02:02:21.653Z,98658.06
2023-02-22T02:04:49.789Z,98651.88
2023-02-22T02:07:21.734Z,98653.63
2023-02-22T02:10:04.485Z,98646.84
2023-02-22T02:12:35.986Z,98651.25
2023-02-22T02:15:34.111Z,98644.53
2023-02-22T02:18:07.629Z,98646.34
2023-02-22T02:21:20.865Z,98661.09
2023-02-22T02:24:57.454Z,98648.06
2023-02-22T02:27:35.203Z,98646.19
2023-02-22T02:30:32.253Z,98642.00
2023-02-22T02:33:20.245Z,98634.91
2023-02-22T02:36:00.442Z,98640.63
2023-02-22T02:39:06.114Z,98639.16
2023-02-22T02:41:48.684Z,98630.00
2023-02-22T02:44:30.369Z,98624.28
2023-02-22T02:47:09.078Z,98619.16
2023-02-22T02:49:52.092Z,98615.25
2023-02-22T02:52:24.277Z,98606.19
2023-02-22T02:54:53.478Z,98610.97
2023-02-22T02:57:21.265Z,98606.50
2023-02-22T02:59:48.963Z,98614.84
2023-02-22T03:02:46.858Z,98605.44
2023-02-22T03:05:35.517Z,98602.31
2023-02-22T03:08:20.961Z,98598.03
2023-02-22T03:11:16.151Z,98594.44
2023-02-22T03:14:16.479Z,98595.97
2023-02-22T03:17:37.001Z,98597.91
2023-02-22T03:20:48.461Z,98587.56
2023-02-22T03:23:35.712Z,98578.78
2023-02-22T03:26:13.307Z,98580.63
2023-02-22T03:28:44.165Z,98579.63
2023-02-22T03:31:23.027Z,98580.34
2023-02-22T03:33:57.849Z,98576.00
2023-02-22T03:36:41.550Z,98581.28
2023-02-22T03:39:17.428Z,98580.91
2023-02-22T03:41:52.968Z,98581.00
2023-02-22T03:44:29.602Z,98584.44
2023-02-22T03:47:02.077Z,98578.19
2023-02-22T03:49:51.870Z,98587.59
2023-02-22T03:52:23.437Z,98585.53
2023-02-22T03:54:53.723Z,98582.72
2023-02-22T03:57:34.091Z,98586.47
2023-02-22T04:00:14.458Z,98587.56
2023-02-22T04:02:42.728Z,98585.63
2023-02-22T04:05:15.486Z,98584.59
2023-02-22T04:07:43.438Z,98580.09
2023-02-22T04:10:14.984Z,98585.25
2023-02-22T04:12:43.085Z,98584.97
2023-02-22T04:15:16.009Z,98585.78
2023-02-22T04:17:44.505Z,98583.38
2023-02-22T04:20:19.844Z,98583.50
2023-02-22T04:22:56.713Z,98579.72
2023-02-22T04:25:25.186Z,98580.19
2023-02-22T04:27:54.628Z,98579.22
2023-02-22T04:30:34.444Z,98577.44
2023-02-22T04:33:03.659Z,98574.78
2023-02-22T04:35:33.710Z,98579.72
2023-02-22T04:38:04.299Z,98573.84
2023-02-22T04:40:33.285Z,98572.03
2023-02-22T04:43:01.284Z,98575.66
2023-02-22T04:45:29.996Z,98574.72
2023-02-22T04:47:57.718Z,98572.56
2023-02-22T04:50:25.436Z,98576.31
2023-02-22T04:52:53.137Z,98569.97
2023-02-22T04:55:20.882Z,98565.34
2023-02-22T04:57:48.548Z,98572.38
2023-02-22T05:00:21.804Z,98566.22
2023-02-22T05:02:51.027Z,98567.38
2023-02-22T05:05:21.494Z,98567.63
2023-02-22T05:07:50.430Z,98565.06
2023-02-22T05:10:18.659Z,98565.47
2023-02-22T05:12:46.358Z,98576.50
2023-02-22T05:15:20.614Z,98567.16
2023-02-22T05:17:48.808Z,98563.25
2023-02-22T05:20:30.875Z,98561.13
2023-02-22T05:23:00.819Z,98563.50
2023-02-22T05:25:29.429Z,98572.34
2023-02-22T05:28:01.050Z,98561.22
2023-02-22T05:30:33.597Z,98559.06
2023-02-22T05:33:02.459Z,98555.19
2023-02-22T05:35:30.324Z,98556.06
2023-02-22T05:38:01.739Z,98551.13
2023-02-22T05:40:31.487Z,98556.16
2023-02-22T05:43:00.856Z,98553.19
2023-02-22T05:45:29.649Z,98552.16
2023-02-22T05:47:57.737Z,98553.19
2023-02-22T05:50:26.315Z,98554.81
2023-02-22T05:52:54.776Z,98553.28
2023-02-22T05:55:24.644Z,98554.75
2023-02-22T05:57:53.056Z,98545.59
2023-02-22T06:00:31.110Z,98543.88
2023-02-22T06:03:05.264Z,98550.88
2023-02-22T06:05:33.534Z,98543.88
2023-02-22T06:08:05.141Z,98548.41
2023-02-22T06:10:33.674Z,98537.06
2023-02-22T06:13:03.567Z,98551.06
2023-02-22T06:15:31.672Z,98543.13
2023-02-22T06:18:00.276Z,98547.41
2023-02-22T06:20:31.450Z,98542.88
2023-02-22T06:23:00.504Z,98549.94
2023-02-22T06:25:33.353Z,98550.69
2023-02-22T06:28:01.822Z,98543.63
2023-02-22T06:30:30.705Z,98548.97
2023-02-22T06:32:58.722Z,98542.84
2023-02-22T06:35:26.842Z,98545.19
2023-02-22T06:37:55.811Z,98548.00
2023-02-22T06:40:23.529Z,98547.03
2023-02-22T06:42:51.390Z,98545.59
2023-02-22T06:45:19.497Z,98548.06
2023-02-22T06:47:49.681Z,98549.66
2023-02-22T06:50:26.257Z,98560.06
2023-02-22T06:52:54.630Z,98559.22
2023-02-22T06:55:25.662Z,98557.81
2023-02-22T06:57:53.617Z,98564.66
2023-02-22T07:00:27.505Z,98564.25
2023-02-22T07:02:56.415Z,98555.25
2023-02-22T07:05:26.552Z,98556.00
2023-02-22T07:08:02.876Z,98557.22
2023-02-22T07:10:33.498Z,98559.91
2023-02-22T07:13:02.246Z,98560.88
2023-02-22T07:15:32.657Z,98557.59
2023-02-22T07:18:01.439Z,98555.19
2023-02-22T07:20:31.301Z,98549.28
2023-02-22T07:22:59.540Z,98550.72
2023-02-22T07:25:27.453Z,98547.03
2023-02-22T07:27:55.054Z,98549.03
2023-02-22T07:30:32.489Z,98552.06
2023-02-22T07:33:04.718Z,98547.56
2023-02-22T07:35:47.983Z,98551.38
2023-02-22T07:38:18.943Z,98541.28
2023-02-22T07:40:46.855Z,98545.38
2023-02-22T07:43:22.471Z,98547.25
2023-02-22T07:45:53.649Z,98543.34
2023-02-22T07:48:24.985Z,98557.97
2023-02-22T07:50:53.080Z,98548.47
2023-02-22T07:53:30.369Z,98551.13
2023-02-22T07:55:59.717Z,98546.81
2023-02-22T07:58:29.882Z,98547.84
2023-02-22T08:00:58.821Z,98552.78
2023-02-22T08:03:27.391Z,98551.81
2023-02-22T08:06:00.404Z,98551.47
2023-02-22T08:08:28.453Z,98553.81
2023-02-22T08:10:56.469Z,98541.78
2023-02-22T08:13:24.372Z,98551.19
2023-02-22T08:15:54.094Z,98548.97
2023-02-22T08:18:23.226Z,98542.97
2023-02-22T08:20:52.651Z,98549.94
2023-02-22T08:23:23.671Z,98543.84
2023-02-22T08:25:52.048Z,98548.13
2023-02-22T08:28:23.454Z,98544.53
2023-02-22T08:30:52.041Z,98539.50
2023-02-22T08:33:20.674Z,98542.84
2023-02-22T08:35:50.191Z,98541.84
2023-02-22T08:38:30.080Z,98539.56
2023-02-22T08:40:58.058Z,98543.53
2023-02-22T08:43:25.998Z,98539.91
2023-02-22T08:45:56.875Z,98542.72
2023-02-22T08:48:25.728Z,98541.03
2023-02-22T08:50:53.556Z,98537.72
2023-02-22T08:53:21.546Z,98540.94
2023-02-22T08:55:49.718Z,98535.69
2023-02-22T08:58:17.562Z,98536.00
2023-02-22T09:00:47.383Z,98527.56
2023-02-22T09:03:15.884Z,98526.66
2023-02-22T09:05:44.797Z,98519.50
2023-02-22T09:08:17.329Z,98522.78
2023-02-22T09:10:45.371Z,98515.75
2023-02-22T09:13:13.735Z,98527.97
2023-02-22T09:15:41.411Z,98522.16
2023-02-22T09:18:14.496Z,98518.16
2023-02-22T09:20:42.628Z,98513.53
2023-02-22T09:23:11.069Z,98527.44
2023-02-22T09:25:40.932Z,98515.84
2023-02-22T09:28:09.463Z,98517.72
2023-02-22T09:30:38.359Z,98515.94
2023-02-22T09:33:10.782Z,98512.44
2023-02-22T09:35:46.283Z,98508.47
2023-02-22T09:38:19.456Z,98512.03
2023-02-22T09:40:54.292Z,98505.78
2023-02-22T09:43:35.830Z,98510.69
2023-02-22T09:46:25.123Z,98504.16
2023-02-22T09:49:09.740Z,98511.75
2023-02-22T09:52:00.772Z,98508.78
2023-02-22T09:54:36.094Z,98506.59
2023-02-22T09:57:16.194Z,98506.53
2023-02-22T10:00:20.592Z,98510.81
2023-02-22T10:03:30.170Z,98511.44
2023-02-22T10:06:05.483Z,98507.22
2023-02-22T10:08:38.717Z,98504.78
2023-02-22T10:11:31.054Z,98505.47
2023-02-22T10:14:45.365Z,98499.09
2023-02-22T10:17:32.518Z,98492.16
2023-02-22T10:20:14.612Z,98488.66
2023-02-22T10:22:57.513Z,98489.44
2023-02-22T10:25:34.909Z,98486.72
2023-02-22T10:28:31.069Z,98487.38
2023-02-22T10:31:37.630Z,98489.50
2023-02-22T10:34:21.252Z,98473.03
2023-02-22T10:36:55.768Z,98478.22
2023-02-22T10:39:35.146Z,98474.41
2023-02-22T10:42:07.968Z,98467.91
2023-02-22T10:44:40.836Z,98470.75
2023-02-22T10:47:21.591Z,98466.09
2023-02-22T10:49:57.515Z,98460.78
2023-02-22T10:52:33.751Z,98464.78
2023-02-22T10:55:14.675Z,98456.84
2023-02-22T10:57:47.881Z,98457.00
2023-02-22T11:00:46.758Z,98454.31
2023-02-22T11:03:21.838Z,98453.31
2023-02-22T11:05:50.728Z,98444.44
2023-02-22T11:08:28.480Z,98443.78
2023-02-22T11:11:01.680Z,98445.69
2023-02-22T11:13:39.494Z,98441.75
2023-02-22T11:16:38.840Z,98429.25
2023-02-22T11:19:12.478Z,98431.09
2023-02-22T11:21:40.735Z,98433.94
2023-02-22T11:24:13.430Z,98426.00
2023-02-22T11:26:51.836Z,98421.91
2023-02-22T11:29:35.599Z,98423.78
2023-02-22T11:32:21.399Z,98423.34
2023-02-22T11:35:00.268Z,98417.50
2023-02-22T11:37:37.232Z,98409.28
2023-02-22T11:40:22.371Z,98407.53
2023-02-22T11:43:16.019Z,98401.28
2023-02-22T11:46:02.077Z,98401.50
2023-02-22T11:48:39.115Z,98401.00
2023-02-22T11:51:49.376Z,98399.06
2023-02-22T11:54:38.839Z,98395.16
2023-02-22T11:57:33.120Z,98395.00
2023-02-22T12:00:37.125Z,98381.50
2023-02-22T12:03:23.371Z,98384.78
2023-02-22T12:06:30.895Z,98379.44
2023-02-22T12:09:40.784Z,98380.47
2023-02-22T12:13:00.056Z,98380.38
2023-02-22T12:16:16.923Z,98367.03
2023-02-22T12:19:13.621Z,98369.72
2023-02-22T12:21:47.239Z,98357.75
2023-02-22T12:24:27.802Z,98367.97
2023-02-22T12:27:09.651Z,98363.47
2023-02-22T12:29:56.851Z,98363.34
2023-02-22T12:32:53.652Z,98365.41
2023-02-22T12:35:37.469Z,98368.59
2023-02-22T12:38:44.273Z,98358.00
2023-02-22T12:41:42.667Z,98368.19
2023-02-22T12:44:24.873Z,98359.91
2023-02-22T12:46:56.978Z,98360.19
2023-02-22T12:50:00.426Z,98359.94
2023-02-22T12:53:04.547Z,98360.75
2023-02-22T12:55:51.577Z,98353.91
2023-02-22T12:58:39.769Z,98346.59
2023-02-22T13:01:41.489Z,98347.13
2023-02-22T13:04:20.472Z,98350.72
2023-02-22T13:07:39.669Z,98352.16
2023-02-22T13:10:57.489Z,98353.59
2023-02-22T13:14:05.240Z,98343.47
2023-02-22T13:16:53.850Z,98344.44
2023-02-22T13:19:53.586Z,98344.38
2023-02-22T13:22:45.091Z,98349.50
2023-02-22T13:25:49.949Z,98340.13
2023-02-22T13:28:40.322Z,98344.16
2023-02-22T13:31:41.070Z,98342.81
2023-02-22T13:34:51.623Z,98344.34
2023-02-22T13:37:35.834Z,98338.91
2023-02-22T13:40:30.721Z,98334.72
2023-02-22T13:43:28.200Z,98339.41
2023-02-22T13:46:52.409Z,98337.69
2023-02-22T13:50:15.944Z,98329.59
2023-02-22T13:52:45.525Z,98326.00
2023-02-22T13:55:32.161Z,98329.59
2023-02-22T13:58:08.714Z,98330.06
2023-02-22T14:00:52.313Z,98322.97
2023-02-22T14:03:24.008Z,98323.91
2023-02-22T14:05:57.085Z,98324.97
2023-02-22T14:08:31.261Z,98326.22
2023-02-22T14:11:06.626Z,98325.34
2023-02-22T14:13:55.204Z,98329.22
2023-02-22T14:16:29.610Z,98337.63
2023-02-22T14:19:23.407Z,98326.97
2023-02-22T14:22:08.691Z,98325.31
2023-02-22T14:24:57.890Z,98320.72
2023-02-22T14:27:25.259Z,98323.94
2023-02-22T14:30:00.454Z,98325.59
2023-02-22T14:32:35.787Z,98329.16
2023-02-22T14:35:26.447Z,98329.53
2023-02-22T14:38:00.902Z,98324.41
2023-02-22T14:40:34.781Z,98322.97
2023-02-22T14:43:24.850Z,98329.22
2023-02-22T14:46:00.331Z,98326.34
2023-02-22T14:48:42.894Z,98322.72
2023-02-22T14:51:42.837Z,98314.19
2023-02-22T14:54:50.445Z,98315.19
2023-02-22T14:57:50.032Z,98317.63
2023-02-22T15:00:30.964Z,98322.31
2023-02-22T15:03:01.682Z,98325.50
2023-02-22T15:05:38.537Z,98319.88
2023-02-22T15:08:09.225Z,98320.13
2023-02-22T15:10:37.125Z,98318.91
2023-02-22T15:13:23.823Z,98315.84
2023-02-22T15:16:03.473Z,98329.69
2023-02-22T15:18:55.467Z,98315.28
2023-02-22T15:21:29.931Z,98324.78
2023-02-22T15:24:04.201Z,98329.09
2023-02-22T15:26:51.991Z,98317.03
2023-02-22T15:29:38.133Z,98321.63
2023-02-22T15:32:30.148Z,98325.22
2023-02-22T15:35:20.113Z,98327.63
2023-02-22T15:37:48.455Z,98323.50
2023-02-22T15:40:21.036Z,98324.25
2023-02-22T15:43:18.085Z,98326.59
2023-02-22T15:45:46.579Z,98318.50
2023-02-22T15:48:15.900Z,98323.31
2023-02-22T15:51:13.713Z,98322.97
2023-02-22T15:53:47.635Z,98322.38
2023-02-22T15:56:36.001Z,98318.00
2023-02-22T15:59:15.307Z,98328.28
2023-02-22T16:01:47.227Z,98326.28
2023-02-22T16:04:27.067Z,98327.22
2023-02-22T16:07:16.858Z,98318.50
2023-02-22T16:09:51.061Z,98330.88
2023-02-22T16:12:21.419Z,98329.81
2023-02-22T16:14:52.260Z,98324.56
2023-02-22T16:17:30.893Z,98330.28
2023-02-22T16:20:14.178Z,98332.59
2023-02-22T16:22:49.427Z,98336.09
2023-02-22T16:25:19.531Z,98334.88
2023-02-22T16:28:03.030Z,98346.63
2023-02-22T16:30:40.166Z,98338.25
2023-02-22T16:33:13.803Z,98327.16
2023-02-22T16:35:51.573Z,98335.06
2023-02-22T16:38:21.130Z,98332.22
2023-02-22T16:40:55.463Z,98333.25
2023-02-22T16:43:34.551Z,98335.06
2023-02-22T16:46:03.587Z,98335.84
2023-02-22T16:48:32.952Z,98330.28
2023-02-22T16:51:17.109Z,98328.03
2023-02-22T16:53:45.122Z,98324.94
2023-02-22T16:56:19.012Z,98335.28
2023-02-22T16:58:50.703Z,98333.28
2023-02-22T17:01:19.681Z,98328.34
2023-02-22T17:03:47.947Z,98329.94
2023-02-22T17:06:15.383Z,98334.50
2023-02-22T17:08:43.528Z,98337.22
2023-02-22T17:11:13.693Z,98338.06
2023-02-22T17:13:40.933Z,98341.16
2023-02-22T17:16:15.328Z,98354.22
2023-02-22T17:18:42.790Z,98347.75
2023-02-22T17:21:11.956Z,98352.06
2023-02-22T17:23:39.116Z,98353.00
2023-02-22T17:26:06.267Z,98359.09
2023-02-22T17:28:33.427Z,98364.19
2023-02-22T17:31:01.680Z,98370.56
2023-02-22T17:33:34.044Z,98372.97
2023-02-22T17:36:04.987Z,98375.59
2023-02-22T17:38:32.438Z,98381.19
2023-02-22T17:41:01.318Z,98381.72
2023-02-22T17:43:29.384Z,98386.75
2023-02-22T17:45:57.380Z,98392.06
2023-02-22T17:48:25.572Z,98401.28
2023-02-22T17:50:53.710Z,98389.78
2023-02-22T17:53:24.481Z,98387.63
2023-02-22T17:55:53.048Z,98392.34
2023-02-22T17:58:20.866Z,98400.47
2023-02-22T18:00:59.439Z,98397.19
2023-02-22T18:03:31.372Z,98398.41
2023-02-22T18:06:01.539Z,98401.53
2023-02-22T18:08:32.067Z,98401.22
2023-02-22T18:11:05.147Z,98402.63
2023-02-22T18:13:32.426Z,98395.25
2023-02-22T18:16:00.693Z,98395.44
2023-02-22T18:18:28.661Z,98403.25
2023-02-22T18:20:59.598Z,98402.38
2023-02-22T18:23:31.450Z,98405.09
2023-02-22T18:26:10.705Z,98410.63
2023-02-22T18:28:39.479Z,98411.97
2023-02-22T18:31:16.394Z,98406.81
2023-02-22T18:33:48.106Z,98408.88
2023-02-22T18:36:17.896Z,98403.78
2023-02-22T18:38:45.239Z,98402.25
2023-02-22T18:41:17.328Z,98406.84
2023-02-22T18:43:50.714Z,98399.53
2023-02-22T18:46:22.543Z,98398.44
2023-02-22T18:48:55.746Z,98395.94
2023-02-22T18:51:24.837Z,98404.06
2023-02-22T18:54:00.074Z,98399.41
2023-02-22T18:56:30.253Z,98398.72
2023-02-22T18:59:01.938Z,98404.13
2023-02-22T19:01:37.696Z,98405.47
2023-02-22T19:04:12.613Z,98401.66
2023-02-22T19:06:41.226Z,98398.38
2023-02-22T19:09:08.672Z,98412.66
2023-02-22T19:11:37.860Z,98405.75
2023-02-22T19:14:05.234Z,98401.69
2023-02-22T19:16:33.145Z,98410.22
2023-02-22T19:19:01.077Z,98402.69
2023-02-22T19:21:31.891Z,98397.75
2023-02-22T19:24:02.134Z,98404.84
2023-02-22T19:26:29.654Z,98410.59
2023-02-22T19:29:01.335Z,98398.44
2023-02-22T19:31:33.901Z,98403.06
2023-02-22T19:34:10.176Z,98409.25
2023-02-22T19:36:48.028Z,98411.19
2023-02-22T19:39:20.684Z,98415.03
2023-02-22T19:41:48.034Z,98412.53
2023-02-22T19:44:15.240Z,98419.09
2023-02-22T19:46:42.823Z,98415.72
2023-02-22T19:49:10.109Z,98417.75
2023-02-22T19:51:37.589Z,98422.47
2023-02-22T19:54:08.766Z,98431.22
2023-02-22T19:56:36.074Z,98421.28
2023-02-22T19:59:14.048Z,98423.50
2023-02-22T20:01:46.428Z,98419.28
2023-02-22T20:04:18.592Z,98418.09
2023-02-22T20:06:56.473Z,98423.28
2023-02-22T20:09:30.278Z,98429.84
2023-02-22T20:11:57.850Z,98426.63
2023-02-22T20:14:28.559Z,98436.72
2023-02-22T20:16:58.600Z,98426.94
2023-02-22T20:19:27.940Z,98433.16
2023-02-22T20:21:56.404Z,98425.03
2023-02-22T20:24:25.015Z,98421.16
2023-02-22T20:26:55.692Z,98427.53
2023-02-22T20:29:29.622Z,98433.59
2023-02-22T20:32:00.417Z,98434.28
2023-02-22T20:34:33.382Z,98438.84
2023-02-22T20:37:05.233Z,98432.91
2023-02-22T20:39:32.701Z,98424.09
2023-02-22T20:42:04.618Z,98444.09
2023-02-22T20:44:31.987Z,98434.09
2023-02-22T20:47:00.365Z,98439.34
2023-02-22T20:49:27.749Z,98439.78
2023-02-22T20:51:54.953Z,98436.31
2023-02-22T20:54:22.096Z,98440.50
2023-02-22T20:56:52.674Z,98434.78
2023-02-22T20:59:21.769Z,98433.72
2023-02-22T21:01:50.016Z,98438.78
2023-02-22T21:04:17.811Z,98440.34
2023-02-22T21:06:46.724Z,98448.34
2023-02-22T21:14:37.463Z,98441.03
2023-02-22T21:17:05.389Z,98446.47
2023-02-22T21:19:33.312Z,98445.56
2023-02-22T21:22:06.674Z,98454.56
2023-02-22T21:24:36.607Z,98444.72
2023-02-22T21:27:06.758Z,98444.53
2023-02-22T21:29:35.632Z,98439.22
2023-02-22T21:32:03.176Z,98442.66
2023-02-22T21:34:30.432Z,98440.69
2023-02-22T21:36:57.785Z,98448.00
2023-02-22T21:39:30.743Z,98443.91
2023-02-22T21:42:00.174Z,98435.91
2023-02-22T21:44:28.886Z,98439.97
2023-02-22T21:46:57.268Z,98442.06
2023-02-22T21:49:25.131Z,98439.09
2023-02-22T21:51:52.662Z,98440.84
2023-02-22T21:54:20.405Z,98442.59
2023-02-22T21:56:47.915Z,98440.53
2023-02-22T21:59:20.518Z,98441.66
2023-02-22T22:01:57.373Z,98441.81
2023-02-22T22:04:29.975Z,98438.34
2023-02-22T22:07:01.413Z,98434.94
2023-02-22T22:09:33.305Z,98435.91
2023-02-22T22:12:05.680Z,98435.44
2023-02-22T22:14:35.024Z,98438.84
2023-02-22T22:17:06.999Z,98432.50
2023-02-22T22:19:41.621Z,98434.47
2023-02-22T22:22:09.367Z,98433.06
2023-02-22T22:24:37.180Z,98436.81
2023-02-22T22:27:06.507Z,98434.06
2023-02-22T22:29:34.490Z,98430.66
2023-02-22T22:32:03.316Z,98437.78
2023-02-22T22:34:30.998Z,98434.00
2023-02-22T22:36:58.234Z,98442.53
2023-02-22T22:39:30.454Z,98439.59
2023-02-22T22:41:57.639Z,98439.59
2023-02-22T22:44:28.809Z,98437.31
2023-02-22T22:46:56.465Z,98434.38
2023-02-22T22:49:25.543Z,98439.94
2023-02-22T22:51:53.403Z,98440.81
2023-02-22T22:54:20.740Z,98442.81
2023-02-22T22:56:48.247Z,98446.97
2023-02-22T22:59:15.451Z,98441.81
2023-02-22T23:01:46.632Z,98442.31
2023-02-22T23:04:16.722Z,98445.81
2023-02-22T23:06:52.974Z,98440.03
2023-02-22T23:09:34.620Z,98450.09
2023-02-22T23:12:17.745Z,98445.78
2023-02-22T23:14:46.000Z,98446.06
2023-02-22T23:17:26.834Z,98445.81
2023-02-22T23:19:54.817Z,98446.16
2023-02-22T23:22:21.948Z,98452.72
2023-02-22T23:24:49.176Z,98444.22
2023-02-22T23:27:18.917Z,98445.94
2023-02-22T23:29:46.856Z,98443.59
2023-02-22T23:32:14.667Z,98443.38
2023-02-22T23:34:41.975Z,98447.69
2023-02-22T23:37:10.658Z,98446.59
2023-02-22T23:39:38.712Z,98443.50
2023-02-22T23:42:08.914Z,98439.44
2023-02-22T23:44:36.411Z,98437.81
2023-02-22T23:47:04.429Z,98446.19
2023-02-22T23:49:38.871Z,98451.88
2023-02-22T23:52:09.200Z,98442.66
2023-02-22T23:54:43.540Z,98448.41
2023-02-22T23:57:10.933Z,98444.03
2023-02-22T23:59:41.240Z,98439.72
